Time;durP1;ratioP1;P1;durP2;ratioP2;P2;SDS_P1;SDS_P2;PMS_P1;PMS_P2;Temp;Humidity;BMP_temperature;BMP_pressure;BME280_temperature;BME280_humidity;BME280_pressure;Samples;Min_cycle;Max_cycle;Signal;HPM_P1;HPM_P2
2023/04/16 00:08:58;;;;;;;14.5;7.8;;;;;;;5.3;85.9;98290;;;;
2023/04/16 00:18:58;;;;;;;;;;;;;;;5.3;85.6;98300;;;;
2023/04/16 00:29:58;;;;;;;14.1;7.1;;;;;;;5;85.4;98300;;;;
2023/04/16 00:40:58;;;;;;;14.1;7.1;;;;;;;4.9;85.8;98320;;;;
2023/04/16 00:50:59;;;;;;;13.9;9.1;;;;;;;5.3;89;98340;;;;
2023/04/16 01:01:58;;;;;;;13.9;9.1;;;;;;;5.3;88.9;98350;;;;
2023/04/16 01:11:58;;;;;;;13.9;9.1;;;;;;;5.4;88.2;98350;;;;
2023/04/16 01:22:58;;;;;;;12.9;6.9;;;;;;;5.6;87.9;98340;;;;
2023/04/16 01:32:58;;;;;;;12.9;6.9;;;;;;;5.6;87.2;98340;;;;
2023/04/16 01:43:58;;;;;;;12.9;6.9;;;;;;;5.5;86.3;98350;;;;
2023/04/16 01:54:58;;;;;;;11.2;5.6;;;;;;;5;85.5;98340;;;;
2023/04/16 02:04:58;;;;;;;11.2;5.6;;;;;;;4.8;85.1;98350;;;;
2023/04/16 02:15:58;;;;;;;11.2;5.6;;;;;;;4.5;84.9;98350;;;;
2023/04/16 02:25:58;;;;;;;13.3;6.7;;;;;;;4.2;84.8;98360;;;;
2023/04/16 02:35:58;;;;;;;13.3;6.7;;;;;;;4;85;98370;;;;
2023/04/16 02:45:58;;;;;;;13.3;6.7;;;;;;;3.8;85.3;98380;;;;
2023/04/16 02:56:58;;;;;;;11.6;7.2;;;;;;;3.7;85.5;98390;;;;
2023/04/16 03:06:58;;;;;;;11.6;7.2;;;;;;;3.5;85.3;98400;;;;
2023/04/16 03:17:58;;;;;;;11.6;7.2;;;;;;;3.5;85.7;98410;;;;
2023/04/16 03:28:58;;;;;;;9.4;5.1;;;;;;;3.5;85.9;98420;;;;
2023/04/16 03:38:58;;;;;;;9.4;5.1;;;;;;;3.3;85.9;98430;;;;
2023/04/16 03:49:58;;;;;;;16.8;8.1;;;;;;;3.2;86.1;98440;;;;
2023/04/16 04:00:58;;;;;;;16.8;8.1;;;;;;;3.1;86.5;98450;;;;
2023/04/16 04:10:58;;;;;;;16.8;8.1;;;;;;;3.1;86.4;98470;;;;
2023/04/16 04:20:58;;;;;;;13.9;7.6;;;;;;;3.2;86.4;98480;;;;
2023/04/16 04:30:58;;;;;;;13.9;7.6;;;;;;;3.4;86.7;98500;;;;
2023/04/16 04:40:58;;;;;;;13.9;7.6;;;;;;;3.7;87.1;98510;;;;
2023/04/16 04:51:58;;;;;;;14.2;7.8;;;;;;;4;87.4;98520;;;;
2023/04/16 05:02:58;;;;;;;14.2;7.8;;;;;;;4.5;87.8;98520;;;;
2023/04/16 05:12:58;;;;;;;14.2;7.8;;;;;;;5.1;88;98540;;;;
2023/04/16 05:22:58;;;;;;;11.5;5.5;;;;;;;5.7;87.8;98550;;;;
2023/04/16 05:33:58;;;;;;;11.5;5.5;;;;;;;6.4;86.7;98560;;;;
2023/04/16 05:43:58;;;;;;;11.5;5.5;;;;;;;6.9;84.8;98570;;;;
2023/04/16 05:53:58;;;;;;;8.1;4.1;;;;;;;7.3;83.1;98570;;;;
2023/04/16 06:03:58;;;;;;;8.1;4.1;;;;;;;7.7;81.2;98580;;;;
2023/04/16 06:14:58;;;;;;;8.1;4.1;;;;;;;8.1;80;98590;;;;
2023/04/16 06:24:58;;;;;;;10.1;6.2;;;;;;;8.6;79.6;98590;;;;
2023/04/16 06:35:58;;;;;;;10.1;6.2;;;;;;;9;77.1;98600;;;;
2023/04/16 06:46:58;;;;;;;10.1;6.2;;;;;;;9.3;76.2;98610;;;;
2023/04/16 06:56:58;;;;;;;13.9;9;;;;;;;9.7;76.1;98610;;;;
2023/04/16 07:07:58;;;;;;;13.9;9;;;;;;;10.1;76.6;98620;;;;
2023/04/16 07:17:58;;;;;;;13.9;9;;;;;;;10.4;75.5;98620;;;;
2023/04/16 07:27:58;;;;;;;16.9;9.5;;;;;;;10.8;75.5;98630;;;;
2023/04/16 07:38:58;;;;;;;16.9;9.5;;;;;;;11;75.5;98640;;;;
2023/04/16 07:49:58;;;;;;;15.7;13.2;;;;;;;11.6;75.2;98650;;;;
2023/04/16 08:00:00;;;;;;;15.7;13.2;;;;;;;11.9;74.3;98660;;;;
2023/04/16 08:09:58;;;;;;;15.7;13.2;;;;;;;12;73.8;98670;;;;
2023/04/16 08:20:58;;;;;;;14.9;11.8;;;;;;;12.3;71.6;98680;;;;
2023/04/16 08:30:58;;;;;;;14.9;11.8;;;;;;;12.7;67.7;98670;;;;
2023/04/16 08:41:58;;;;;;;14.9;11.8;;;;;;;13.2;68.6;98670;;;;
2023/04/16 08:52:58;;;;;;;7.2;5.1;;;;;;;13.3;63.5;98680;;;;
2023/04/16 09:04:00;;;;;;;7.2;5.1;;;;;;;13.5;62.8;98690;;;;
2023/04/16 09:15:01;;;;;;;7.2;5.1;;;;;;;14;62;98680;;;;
2023/04/16 09:24:58;;;;;;;4.8;2.8;;;;;;;14.2;62.3;98680;;;;
2023/04/16 09:35:58;;;;;;;4.8;2.8;;;;;;;14.5;60.9;98680;;;;
2023/04/16 09:45:58;;;;;;;4.8;2.8;;;;;;;15.1;62.1;98680;;;;
2023/04/16 09:55:58;;;;;;;5.2;3.7;;;;;;;14.8;58.3;98690;;;;
2023/04/16 10:06:58;;;;;;;5.2;3.7;;;;;;;15.3;59.7;98680;;;;
2023/04/16 10:16:58;;;;;;;5.2;3.7;;;;;;;15.4;56.3;98680;;;;
2023/04/16 10:26:58;;;;;;;5.8;3.6;;;;;;;15.1;55.1;98680;;;;
2023/04/16 10:37:59;;;;;;;5.8;3.6;;;;;;;15.1;55;98680;;;;
2023/04/16 10:47:58;;;;;;;5.8;3.6;;;;;;;15.1;55.6;98680;;;;
2023/04/16 10:58:58;;;;;;;5.4;3.2;;;;;;;15.4;54.6;98680;;;;
2023/04/16 11:08:58;;;;;;;5.4;3.2;;;;;;;15.9;53.4;98690;;;;
2023/04/16 11:18:58;;;;;;;5.4;3.2;;;;;;;16.4;53.5;98690;;;;
2023/04/16 11:28:59;;;;;;;5.6;2.7;;;;;;;16;51.5;98690;;;;
2023/04/16 11:38:58;;;;;;;5.6;2.7;;;;;;;16.5;51.2;98690;;;;
2023/04/16 11:49:58;;;;;;;4.6;2.2;;;;;;;16.6;50.2;98690;;;;
2023/04/16 12:00:59;;;;;;;4.6;2.2;;;;;;;17.2;49.6;98680;;;;
2023/04/16 12:11:58;;;;;;;4.6;2.2;;;;;;;17.4;49.5;98670;;;;
2023/04/16 12:23:00;;;;;;;4;2.1;;;;;;;17.9;48;98670;;;;
2023/04/16 12:33:59;;;;;;;4;2.1;;;;;;;18.1;47.2;98660;;;;
2023/04/16 12:43:58;;;;;;;4;2.1;;;;;;;18.3;46.7;98660;;;;
2023/04/16 12:53:58;;;;;;;3.3;1.9;;;;;;;18.5;44.9;98650;;;;
2023/04/16 13:04:58;;;;;;;3.3;1.9;;;;;;;18.2;45.5;98650;;;;
2023/04/16 13:14:58;;;;;;;3.3;1.9;;;;;;;18.2;46.4;98650;;;;
2023/04/16 13:25:58;;;;;;;3.7;1.8;;;;;;;18.4;44.7;98660;;;;
2023/04/16 13:35:58;;;;;;;3.7;1.8;;;;;;;18.4;46.2;98650;;;;
2023/04/16 13:46:59;;;;;;;3.7;1.8;;;;;;;18.9;46.2;98640;;;;
2023/04/16 13:57:58;;;;;;;2.7;1.6;;;;;;;19.3;42.4;98640;;;;
2023/04/16 14:08:58;;;;;;;2.7;1.6;;;;;;;19.3;43.1;98630;;;;
2023/04/16 14:19:58;;;;;;;3.4;1.4;;;;;;;19.1;40.9;98640;;;;
2023/04/16 14:29:58;;;;;;;3.4;1.4;;;;;;;18.7;44.3;98630;;;;
2023/04/16 14:40:59;;;;;;;3.4;1.4;;;;;;;18.4;45.4;98640;;;;
2023/04/16 14:50:58;;;;;;;5;2.5;;;;;;;18.2;46;98640;;;;
2023/04/16 15:00:58;;;;;;;5;2.5;;;;;;;18.1;44.5;98650;;;;
2023/04/16 15:11:58;;;;;;;5;2.5;;;;;;;17.7;45.3;98650;;;;
2023/04/16 15:21:58;;;;;;;4.1;2.5;;;;;;;17.3;46.1;98640;;;;
2023/04/16 15:32:58;;;;;;;4.1;2.5;;;;;;;17.5;46.2;98650;;;;
2023/04/16 15:43:58;;;;;;;4.1;2.5;;;;;;;18.1;46.1;98650;;;;
2023/04/16 15:53:59;;;;;;;4.5;2.3;;;;;;;17.8;46;98650;;;;
2023/04/16 16:04:59;;;;;;;4.5;2.3;;;;;;;17.5;46.6;98650;;;;
2023/04/16 16:14:58;;;;;;;4.5;2.3;;;;;;;17.2;47.9;98670;;;;
2023/04/16 16:24:59;;;;;;;4.9;2.6;;;;;;;16.8;49.6;98670;;;;
2023/04/16 16:35:58;;;;;;;4.9;2.6;;;;;;;16.2;51;98680;;;;
2023/04/16 16:46:58;;;;;;;4.9;2.6;;;;;;;15.6;52.8;98690;;;;
2023/04/16 16:57:58;;;;;;;6.6;3.8;;;;;;;15.1;54;98700;;;;
2023/04/16 17:07:58;;;;;;;6.6;3.8;;;;;;;14.7;54.8;98710;;;;
2023/04/16 17:17:58;;;;;;;6.6;3.8;;;;;;;14.2;55.1;98720;;;;
2023/04/16 17:28:59;;;;;;;9.1;5.9;;;;;;;13.7;57.4;98730;;;;
2023/04/16 17:39:58;;;;;;;9.1;5.9;;;;;;;13.3;58;98740;;;;
2023/04/16 17:50:58;;;;;;;15.9;11.8;;;;;;;12.8;59.5;98750;;;;
2023/04/16 18:00:58;;;;;;;15.9;11.8;;;;;;;12.3;60.9;98760;;;;
2023/04/16 18:11:58;;;;;;;15.9;11.8;;;;;;;12.1;63.1;98760;;;;
2023/04/16 18:21:58;;;;;;;13.7;10.7;;;;;;;11.8;64.2;98770;;;;
2023/04/16 18:32:59;;;;;;;13.7;10.7;;;;;;;11.5;64.6;98780;;;;
2023/04/16 18:43:58;;;;;;;13.7;10.7;;;;;;;11.2;65.4;98790;;;;
2023/04/16 18:53:58;;;;;;;10.8;7.2;;;;;;;10.8;66.4;98810;;;;
2023/04/16 19:04:58;;;;;;;10.8;7.2;;;;;;;10.5;68.1;98800;;;;
2023/04/16 19:14:58;;;;;;;10.8;7.2;;;;;;;10.3;69;98800;;;;
2023/04/16 19:26:00;;;;;;;16.8;9;;;;;;;10.1;70.4;98800;;;;
2023/04/16 19:36:58;;;;;;;16.8;9;;;;;;;10.1;71.5;98800;;;;
2023/04/16 19:46:58;;;;;;;16.8;9;;;;;;;10;71.3;98790;;;;
2023/04/16 19:56:58;;;;;;;15.2;9.7;;;;;;;9.8;71.1;98800;;;;
2023/04/16 20:06:59;;;;;;;15.2;9.7;;;;;;;9.8;73.1;98790;;;;
2023/04/16 20:17:59;;;;;;;15.2;9.7;;;;;;;9.7;73.2;98780;;;;
2023/04/16 20:27:59;;;;;;;16.9;10.4;;;;;;;9.5;73.9;98790;;;;
2023/04/16 20:37:58;;;;;;;16.9;10.4;;;;;;;9.1;74.9;98790;;;;
2023/04/16 20:48:59;;;;;;;15.3;9.9;;;;;;;8.9;75.1;98780;;;;
2023/04/16 20:59:58;;;;;;;15.3;9.9;;;;;;;8.8;75.6;98780;;;;
2023/04/16 21:10:58;;;;;;;15.3;9.9;;;;;;;8.5;75.7;98780;;;;
2023/04/16 21:20:58;;;;;;;16.8;10.3;;;;;;;8.4;76.7;98780;;;;
2023/04/16 21:30:59;;;;;;;16.8;10.3;;;;;;;8.4;77.6;98780;;;;
2023/04/16 21:41:59;;;;;;;16.8;10.3;;;;;;;8.2;77;98780;;;;
2023/04/16 21:52:01;;;;;;;16.2;10.5;;;;;;;8;76.7;98780;;;;
2023/04/16 22:02:59;;;;;;;16.2;10.5;;;;;;;7.7;77.7;98780;;;;
2023/04/16 22:13:00;;;;;;;16.2;10.5;;;;;;;7.6;78.5;98780;;;;
2023/04/16 22:22:59;;;;;;;16.9;10.7;;;;;;;7.5;79.5;98790;;;;
2023/04/16 22:32:59;;;;;;;16.9;10.7;;;;;;;7.5;80.1;98780;;;;
2023/04/16 22:43:59;;;;;;;16.9;10.7;;;;;;;7.4;79.7;98790;;;;
2023/04/16 22:54:59;;;;;;;15.8;9.9;;;;;;;7.3;79.6;98780;;;;
2023/04/16 23:04:59;;;;;;;15.8;9.9;;;;;;;7.1;79.9;98790;;;;
2023/04/16 23:14:59;;;;;;;15.8;9.9;;;;;;;6.9;81.4;98790;;;;
2023/04/16 23:24:59;;;;;;;19.7;12.6;;;;;;;6.9;82.1;98780;;;;
2023/04/16 23:34:59;;;;;;;19.7;12.6;;;;;;;6.8;82;98780;;;;
2023/04/16 23:44:59;;;;;;;19.7;12.6;;;;;;;6.7;83.1;98770;;;;
2023/04/16 23:55:59;;;;;;;17.3;9.5;;;;;;;6.6;82.2;98770;;;;
